sensor_id;sensor_type;location;lat;lon;timestamp;P1;durP1;ratioP1;P2;durP2;ratioP2
41061;SDS011;26812;42.662;23.352;2022-12-29T00:01:13;35.03;;;24.67;;
41061;SDS011;26812;42.662;23.352;2022-12-29T00:03:38;38.35;;;23.27;;
41061;SDS011;26812;42.662;23.352;2022-12-29T00:06:04;36.45;;;22.92;;
41061;SDS011;26812;42.662;23.352;2022-12-29T00:08:29;42.67;;;24.88;;
41061;SDS011;26812;42.662;23.352;2022-12-29T00:11:14;38.55;;;24.42;;
41061;SDS011;26812;42.662;23.352;2022-12-29T00:13:41;36.30;;;24.08;;
41061;SDS011;26812;42.662;23.352;2022-12-29T00:16:25;40.08;;;24.40;;
41061;SDS011;26812;42.662;23.352;2022-12-29T00:18:51;37.65;;;23.83;;
41061;SDS011;26812;42.662;23.352;2022-12-29T00:21:18;38.92;;;24.70;;
41061;SDS011;26812;42.662;23.352;2022-12-29T00:24:03;32.80;;;23.45;;
41061;SDS011;26812;42.662;23.352;2022-12-29T00:27:13;37.53;;;23.08;;
41061;SDS011;26812;42.662;23.352;2022-12-29T00:29:57;35.63;;;24.60;;
41061;SDS011;26812;42.662;23.352;2022-12-29T00:32:41;32.35;;;21.58;;
41061;SDS011;26812;42.662;23.352;2022-12-29T00:35:30;31.30;;;19.35;;
41061;SDS011;26812;42.662;23.352;2022-12-29T00:37:59;30.40;;;18.48;;
41061;SDS011;26812;42.662;23.352;2022-12-29T00:40:47;26.67;;;17.88;;
41061;SDS011;26812;42.662;23.352;2022-12-29T00:43:31;29.33;;;18.08;;
41061;SDS011;26812;42.662;23.352;2022-12-29T00:46:15;29.08;;;19.48;;
41061;SDS011;26812;42.662;23.352;2022-12-29T00:48:40;28.70;;;17.33;;
41061;SDS011;26812;42.662;23.352;2022-12-29T00:51:24;24.77;;;17.65;;
41061;SDS011;26812;42.662;23.352;2022-12-29T00:53:50;26.67;;;15.70;;
41061;SDS011;26812;42.662;23.352;2022-12-29T00:56:15;26.23;;;17.55;;
41061;SDS011;26812;42.662;23.352;2022-12-29T00:58:40;24.92;;;16.42;;
41061;SDS011;26812;42.662;23.352;2022-12-29T01:01:07;26.23;;;16.85;;
41061;SDS011;26812;42.662;23.352;2022-12-29T01:03:34;22.00;;;15.32;;
41061;SDS011;26812;42.662;23.352;2022-12-29T01:06:01;22.33;;;15.20;;
41061;SDS011;26812;42.662;23.352;2022-12-29T01:08:28;24.50;;;15.05;;
41061;SDS011;26812;42.662;23.352;2022-12-29T01:11:01;21.90;;;15.05;;
41061;SDS011;26812;42.662;23.352;2022-12-29T01:13:37;25.73;;;15.88;;
41061;SDS011;26812;42.662;23.352;2022-12-29T01:16:03;23.85;;;15.20;;
41061;SDS011;26812;42.662;23.352;2022-12-29T01:18:30;21.98;;;15.25;;
41061;SDS011;26812;42.662;23.352;2022-12-29T01:21:00;21.05;;;13.90;;
41061;SDS011;26812;42.662;23.352;2022-12-29T01:23:27;21.08;;;14.40;;
41061;SDS011;26812;42.662;23.352;2022-12-29T01:25:53;26.48;;;14.73;;
41061;SDS011;26812;42.662;23.352;2022-12-29T01:28:18;23.95;;;15.35;;
41061;SDS011;26812;42.662;23.352;2022-12-29T01:30:43;25.23;;;14.75;;
41061;SDS011;26812;42.662;23.352;2022-12-29T01:33:09;25.05;;;15.25;;
41061;SDS011;26812;42.662;23.352;2022-12-29T01:35:34;23.38;;;15.27;;
41061;SDS011;26812;42.662;23.352;2022-12-29T01:37:59;23.08;;;14.13;;
41061;SDS011;26812;42.662;23.352;2022-12-29T01:40:25;21.30;;;15.38;;
41061;SDS011;26812;42.662;23.352;2022-12-29T01:42:50;26.30;;;14.63;;
41061;SDS011;26812;42.662;23.352;2022-12-29T01:45:16;23.25;;;15.75;;
41061;SDS011;26812;42.662;23.352;2022-12-29T01:50:28;21.80;;;14.65;;
41061;SDS011;26812;42.662;23.352;2022-12-29T01:53:04;19.58;;;13.63;;
41061;SDS011;26812;42.662;23.352;2022-12-29T01:55:38;20.73;;;13.05;;
41061;SDS011;26812;42.662;23.352;2022-12-29T01:58:09;19.75;;;13.55;;
41061;SDS011;26812;42.662;23.352;2022-12-29T02:00:37;21.83;;;13.88;;
41061;SDS011;26812;42.662;23.352;2022-12-29T02:03:02;20.80;;;13.52;;
41061;SDS011;26812;42.662;23.352;2022-12-29T02:08:15;20.17;;;13.00;;
41061;SDS011;26812;42.662;23.352;2022-12-29T02:10:40;20.25;;;13.73;;
41061;SDS011;26812;42.662;23.352;2022-12-29T02:13:07;22.27;;;13.85;;
41061;SDS011;26812;42.662;23.352;2022-12-29T02:16:19;25.83;;;14.13;;
41061;SDS011;26812;42.662;23.352;2022-12-29T02:29:36;18.52;;;14.13;;
41061;SDS011;26812;42.662;23.352;2022-12-29T02:40:16;21.73;;;13.82;;
41061;SDS011;26812;42.662;23.352;2022-12-29T02:45:47;19.17;;;11.80;;
41061;SDS011;26812;42.662;23.352;2022-12-29T02:48:42;19.67;;;13.82;;
41061;SDS011;26812;42.662;23.352;2022-12-29T02:51:25;19.35;;;13.40;;
41061;SDS011;26812;42.662;23.352;2022-12-29T02:53:56;22.95;;;13.80;;
41061;SDS011;26812;42.662;23.352;2022-12-29T02:56:41;21.67;;;13.40;;
41061;SDS011;26812;42.662;23.352;2022-12-29T02:59:06;25.73;;;13.23;;
41061;SDS011;26812;42.662;23.352;2022-12-29T03:08:13;21.48;;;13.10;;
41061;SDS011;26812;42.662;23.352;2022-12-29T03:19:52;23.27;;;15.20;;
41061;SDS011;26812;42.662;23.352;2022-12-29T03:22:12;27.80;;;14.32;;
41061;SDS011;26812;42.662;23.352;2022-12-29T03:25:43;24.67;;;16.20;;
41061;SDS011;26812;42.662;23.352;2022-12-29T03:27:47;25.50;;;15.68;;
41061;SDS011;26812;42.662;23.352;2022-12-29T03:30:15;23.95;;;14.60;;
41061;SDS011;26812;42.662;23.352;2022-12-29T03:32:42;26.90;;;16.27;;
41061;SDS011;26812;42.662;23.352;2022-12-29T03:35:11;27.73;;;16.67;;
41061;SDS011;26812;42.662;23.352;2022-12-29T03:37:44;28.48;;;16.35;;
41061;SDS011;26812;42.662;23.352;2022-12-29T03:40:15;23.80;;;16.27;;
41061;SDS011;26812;42.662;23.352;2022-12-29T03:42:41;24.02;;;14.90;;
41061;SDS011;26812;42.662;23.352;2022-12-29T03:45:08;21.23;;;15.65;;
41061;SDS011;26812;42.662;23.352;2022-12-29T03:47:34;21.50;;;15.25;;
41061;SDS011;26812;42.662;23.352;2022-12-29T03:50:00;26.35;;;16.02;;
41061;SDS011;26812;42.662;23.352;2022-12-29T03:52:25;19.05;;;13.90;;
41061;SDS011;26812;42.662;23.352;2022-12-29T03:54:50;21.10;;;13.38;;
41061;SDS011;26812;42.662;23.352;2022-12-29T03:57:16;19.73;;;13.20;;
41061;SDS011;26812;42.662;23.352;2022-12-29T03:59:41;19.23;;;13.60;;
41061;SDS011;26812;42.662;23.352;2022-12-29T04:02:07;21.20;;;14.20;;
41061;SDS011;26812;42.662;23.352;2022-12-29T04:04:32;18.88;;;13.55;;
41061;SDS011;26812;42.662;23.352;2022-12-29T04:06:57;23.25;;;13.57;;
41061;SDS011;26812;42.662;23.352;2022-12-29T04:09:23;22.25;;;14.68;;
41061;SDS011;26812;42.662;23.352;2022-12-29T04:11:48;24.30;;;14.32;;
41061;SDS011;26812;42.662;23.352;2022-12-29T04:14:14;22.58;;;13.27;;
41061;SDS011;26812;42.662;23.352;2022-12-29T04:16:39;28.92;;;14.60;;
41061;SDS011;26812;42.662;23.352;2022-12-29T04:19:05;24.73;;;15.45;;
41061;SDS011;26812;42.662;23.352;2022-12-29T04:21:32;25.67;;;15.93;;
41061;SDS011;26812;42.662;23.352;2022-12-29T04:23:57;25.02;;;15.13;;
41061;SDS011;26812;42.662;23.352;2022-12-29T04:26:23;23.10;;;15.40;;
41061;SDS011;26812;42.662;23.352;2022-12-29T04:28:48;19.02;;;14.52;;
41061;SDS011;26812;42.662;23.352;2022-12-29T04:31:14;20.77;;;14.05;;
41061;SDS011;26812;42.662;23.352;2022-12-29T04:33:39;27.42;;;15.30;;
41061;SDS011;26812;42.662;23.352;2022-12-29T04:36:05;24.33;;;14.23;;
41061;SDS011;26812;42.662;23.352;2022-12-29T04:38:30;25.45;;;14.98;;
41061;SDS011;26812;42.662;23.352;2022-12-29T04:40:58;21.38;;;14.57;;
41061;SDS011;26812;42.662;23.352;2022-12-29T04:43:24;22.70;;;14.35;;
41061;SDS011;26812;42.662;23.352;2022-12-29T04:45:50;22.45;;;15.68;;
41061;SDS011;26812;42.662;23.352;2022-12-29T04:48:15;21.83;;;14.43;;
41061;SDS011;26812;42.662;23.352;2022-12-29T04:50:41;23.63;;;15.60;;
41061;SDS011;26812;42.662;23.352;2022-12-29T04:53:07;27.10;;;15.50;;
41061;SDS011;26812;42.662;23.352;2022-12-29T04:55:32;24.92;;;14.45;;
41061;SDS011;26812;42.662;23.352;2022-12-29T04:57:58;24.17;;;15.35;;
41061;SDS011;26812;42.662;23.352;2022-12-29T05:00:24;20.33;;;13.82;;
41061;SDS011;26812;42.662;23.352;2022-12-29T05:02:49;23.48;;;15.35;;
41061;SDS011;26812;42.662;23.352;2022-12-29T05:05:15;26.20;;;15.18;;
41061;SDS011;26812;42.662;23.352;2022-12-29T05:07:40;24.67;;;16.13;;
41061;SDS011;26812;42.662;23.352;2022-12-29T05:10:06;25.90;;;16.45;;
41061;SDS011;26812;42.662;23.352;2022-12-29T05:12:33;26.00;;;15.20;;
41061;SDS011;26812;42.662;23.352;2022-12-29T05:14:59;24.98;;;14.60;;
41061;SDS011;26812;42.662;23.352;2022-12-29T05:17:25;23.42;;;14.32;;
41061;SDS011;26812;42.662;23.352;2022-12-29T05:19:51;24.77;;;15.45;;
41061;SDS011;26812;42.662;23.352;2022-12-29T05:22:16;24.05;;;16.48;;
41061;SDS011;26812;42.662;23.352;2022-12-29T05:24:42;21.77;;;15.80;;
41061;SDS011;26812;42.662;23.352;2022-12-29T05:27:07;24.08;;;15.82;;
41061;SDS011;26812;42.662;23.352;2022-12-29T05:29:32;24.65;;;16.05;;
41061;SDS011;26812;42.662;23.352;2022-12-29T05:31:58;29.67;;;15.70;;
41061;SDS011;26812;42.662;23.352;2022-12-29T05:34:23;25.35;;;16.73;;
41061;SDS011;26812;42.662;23.352;2022-12-29T05:36:49;26.70;;;16.48;;
41061;SDS011;26812;42.662;23.352;2022-12-29T05:39:15;25.13;;;16.05;;
41061;SDS011;26812;42.662;23.352;2022-12-29T05:41:40;32.17;;;17.10;;
41061;SDS011;26812;42.662;23.352;2022-12-29T05:44:06;30.88;;;18.45;;
41061;SDS011;26812;42.662;23.352;2022-12-29T05:46:31;28.65;;;16.98;;
41061;SDS011;26812;42.662;23.352;2022-12-29T05:48:57;29.77;;;17.95;;
41061;SDS011;26812;42.662;23.352;2022-12-29T05:51:22;27.33;;;17.10;;
41061;SDS011;26812;42.662;23.352;2022-12-29T05:53:48;24.25;;;16.52;;
41061;SDS011;26812;42.662;23.352;2022-12-29T05:56:13;24.60;;;16.15;;
41061;SDS011;26812;42.662;23.352;2022-12-29T05:58:38;27.48;;;16.77;;
41061;SDS011;26812;42.662;23.352;2022-12-29T06:01:04;35.28;;;18.95;;
41061;SDS011;26812;42.662;23.352;2022-12-29T06:03:29;27.40;;;18.45;;
41061;SDS011;26812;42.662;23.352;2022-12-29T06:05:55;29.38;;;18.77;;
41061;SDS011;26812;42.662;23.352;2022-12-29T06:08:27;33.20;;;19.90;;
41061;SDS011;26812;42.662;23.352;2022-12-29T06:10:52;29.45;;;19.67;;
41061;SDS011;26812;42.662;23.352;2022-12-29T06:13:18;27.50;;;19.98;;
41061;SDS011;26812;42.662;23.352;2022-12-29T06:15:47;31.10;;;19.02;;
41061;SDS011;26812;42.662;23.352;2022-12-29T06:18:13;31.13;;;19.98;;
41061;SDS011;26812;42.662;23.352;2022-12-29T06:20:38;33.13;;;19.63;;
41061;SDS011;26812;42.662;23.352;2022-12-29T06:23:04;30.35;;;19.77;;
41061;SDS011;26812;42.662;23.352;2022-12-29T06:25:29;31.50;;;20.02;;
41061;SDS011;26812;42.662;23.352;2022-12-29T06:27:57;32.75;;;19.27;;
41061;SDS011;26812;42.662;23.352;2022-12-29T06:30:23;31.13;;;19.70;;
41061;SDS011;26812;42.662;23.352;2022-12-29T06:32:48;30.27;;;20.05;;
41061;SDS011;26812;42.662;23.352;2022-12-29T06:35:13;32.80;;;19.23;;
41061;SDS011;26812;42.662;23.352;2022-12-29T06:37:39;33.17;;;21.40;;
41061;SDS011;26812;42.662;23.352;2022-12-29T06:40:04;36.33;;;21.00;;
41061;SDS011;26812;42.662;23.352;2022-12-29T06:42:30;33.47;;;21.08;;
41061;SDS011;26812;42.662;23.352;2022-12-29T06:44:56;33.88;;;20.48;;
41061;SDS011;26812;42.662;23.352;2022-12-29T06:47:23;37.10;;;20.02;;
41061;SDS011;26812;42.662;23.352;2022-12-29T06:49:49;33.72;;;23.17;;
41061;SDS011;26812;42.662;23.352;2022-12-29T06:52:14;30.63;;;19.77;;
41061;SDS011;26812;42.662;23.352;2022-12-29T06:54:40;29.77;;;20.88;;
41061;SDS011;26812;42.662;23.352;2022-12-29T06:57:05;32.83;;;21.02;;
41061;SDS011;26812;42.662;23.352;2022-12-29T06:59:31;34.70;;;22.00;;
41061;SDS011;26812;42.662;23.352;2022-12-29T07:01:56;34.80;;;22.58;;
41061;SDS011;26812;42.662;23.352;2022-12-29T07:04:22;32.90;;;20.33;;
41061;SDS011;26812;42.662;23.352;2022-12-29T07:06:47;30.45;;;20.02;;
41061;SDS011;26812;42.662;23.352;2022-12-29T07:09:13;31.50;;;20.60;;
41061;SDS011;26812;42.662;23.352;2022-12-29T07:11:38;29.52;;;19.23;;
41061;SDS011;26812;42.662;23.352;2022-12-29T07:14:04;29.77;;;19.75;;
41061;SDS011;26812;42.662;23.352;2022-12-29T07:16:29;32.38;;;19.77;;
41061;SDS011;26812;42.662;23.352;2022-12-29T07:18:55;30.00;;;18.63;;
41061;SDS011;26812;42.662;23.352;2022-12-29T07:21:22;29.80;;;19.65;;
41061;SDS011;26812;42.662;23.352;2022-12-29T07:23:47;29.02;;;18.05;;
41061;SDS011;26812;42.662;23.352;2022-12-29T07:26:14;29.70;;;19.70;;
41061;SDS011;26812;42.662;23.352;2022-12-29T07:28:40;28.55;;;19.65;;
41061;SDS011;26812;42.662;23.352;2022-12-29T07:31:07;32.40;;;19.55;;
41061;SDS011;26812;42.662;23.352;2022-12-29T07:33:40;26.48;;;19.27;;
41061;SDS011;26812;42.662;23.352;2022-12-29T07:36:05;33.35;;;20.95;;
41061;SDS011;26812;42.662;23.352;2022-12-29T07:38:31;30.80;;;21.27;;
41061;SDS011;26812;42.662;23.352;2022-12-29T07:40:57;34.03;;;21.02;;
41061;SDS011;26812;42.662;23.352;2022-12-29T07:43:23;26.33;;;19.23;;
41061;SDS011;26812;42.662;23.352;2022-12-29T07:45:49;34.40;;;20.70;;
41061;SDS011;26812;42.662;23.352;2022-12-29T07:48:14;32.13;;;19.45;;
41061;SDS011;26812;42.662;23.352;2022-12-29T07:50:39;33.55;;;20.85;;
41061;SDS011;26812;42.662;23.352;2022-12-29T07:53:05;32.42;;;20.55;;
41061;SDS011;26812;42.662;23.352;2022-12-29T07:55:30;33.22;;;20.55;;
41061;SDS011;26812;42.662;23.352;2022-12-29T07:57:56;31.70;;;20.25;;
41061;SDS011;26812;42.662;23.352;2022-12-29T08:00:21;34.88;;;20.75;;
41061;SDS011;26812;42.662;23.352;2022-12-29T08:02:47;25.80;;;17.65;;
41061;SDS011;26812;42.662;23.352;2022-12-29T08:05:13;28.98;;;18.63;;
41061;SDS011;26812;42.662;23.352;2022-12-29T08:07:38;27.80;;;17.80;;
41061;SDS011;26812;42.662;23.352;2022-12-29T08:10:04;28.15;;;19.42;;
41061;SDS011;26812;42.662;23.352;2022-12-29T08:12:30;32.83;;;19.00;;
41061;SDS011;26812;42.662;23.352;2022-12-29T08:14:55;27.63;;;18.40;;
41061;SDS011;26812;42.662;23.352;2022-12-29T08:17:21;26.00;;;18.90;;
41061;SDS011;26812;42.662;23.352;2022-12-29T08:19:46;27.60;;;18.50;;
41061;SDS011;26812;42.662;23.352;2022-12-29T08:22:13;24.63;;;17.30;;
41061;SDS011;26812;42.662;23.352;2022-12-29T08:24:39;25.13;;;17.13;;
41061;SDS011;26812;42.662;23.352;2022-12-29T08:27:04;29.02;;;18.85;;
41061;SDS011;26812;42.662;23.352;2022-12-29T08:29:36;26.80;;;17.70;;
41061;SDS011;26812;42.662;23.352;2022-12-29T08:32:02;28.83;;;18.88;;
41061;SDS011;26812;42.662;23.352;2022-12-29T08:34:27;28.75;;;19.00;;
41061;SDS011;26812;42.662;23.352;2022-12-29T08:36:53;30.15;;;19.77;;
41061;SDS011;26812;42.662;23.352;2022-12-29T08:39:18;28.67;;;18.95;;
41061;SDS011;26812;42.662;23.352;2022-12-29T08:41:43;29.73;;;19.45;;
41061;SDS011;26812;42.662;23.352;2022-12-29T08:44:09;33.22;;;21.05;;
41061;SDS011;26812;42.662;23.352;2022-12-29T08:46:34;30.08;;;19.23;;
41061;SDS011;26812;42.662;23.352;2022-12-29T08:49:00;28.48;;;18.35;;
41061;SDS011;26812;42.662;23.352;2022-12-29T08:51:25;28.52;;;18.80;;
41061;SDS011;26812;42.662;23.352;2022-12-29T08:53:51;29.08;;;18.33;;
41061;SDS011;26812;42.662;23.352;2022-12-29T08:56:17;29.48;;;19.48;;
41061;SDS011;26812;42.662;23.352;2022-12-29T08:58:42;27.73;;;19.45;;
41061;SDS011;26812;42.662;23.352;2022-12-29T09:01:08;31.48;;;20.23;;
41061;SDS011;26812;42.662;23.352;2022-12-29T09:03:34;31.83;;;20.15;;
41061;SDS011;26812;42.662;23.352;2022-12-29T09:06:00;27.85;;;17.60;;
41061;SDS011;26812;42.662;23.352;2022-12-29T09:08:25;26.27;;;18.58;;
41061;SDS011;26812;42.662;23.352;2022-12-29T09:10:51;25.30;;;16.35;;
41061;SDS011;26812;42.662;23.352;2022-12-29T09:13:16;30.00;;;18.50;;
41061;SDS011;26812;42.662;23.352;2022-12-29T09:15:43;28.17;;;19.10;;
41061;SDS011;26812;42.662;23.352;2022-12-29T09:18:09;27.10;;;18.63;;
41061;SDS011;26812;42.662;23.352;2022-12-29T09:20:35;29.08;;;18.10;;
41061;SDS011;26812;42.662;23.352;2022-12-29T09:23:02;26.50;;;17.38;;
41061;SDS011;26812;42.662;23.352;2022-12-29T09:25:27;25.13;;;17.48;;
41061;SDS011;26812;42.662;23.352;2022-12-29T09:27:53;24.38;;;16.75;;
41061;SDS011;26812;42.662;23.352;2022-12-29T09:30:20;24.55;;;16.80;;
41061;SDS011;26812;42.662;23.352;2022-12-29T09:32:47;24.40;;;16.80;;
41061;SDS011;26812;42.662;23.352;2022-12-29T09:35:14;23.02;;;16.23;;
41061;SDS011;26812;42.662;23.352;2022-12-29T09:37:40;23.38;;;17.55;;
41061;SDS011;26812;42.662;23.352;2022-12-29T09:40:06;28.55;;;17.88;;
41061;SDS011;26812;42.662;23.352;2022-12-29T09:45:13;25.05;;;16.83;;
41061;SDS011;26812;42.662;23.352;2022-12-29T09:47:40;25.85;;;16.50;;
41061;SDS011;26812;42.662;23.352;2022-12-29T09:53:17;27.05;;;15.75;;
41061;SDS011;26812;42.662;23.352;2022-12-29T09:55:51;23.77;;;16.55;;
41061;SDS011;26812;42.662;23.352;2022-12-29T09:58:22;23.00;;;17.15;;
41061;SDS011;26812;42.662;23.352;2022-12-29T10:00:52;27.67;;;18.17;;
41061;SDS011;26812;42.662;23.352;2022-12-29T10:03:24;24.88;;;16.75;;
41061;SDS011;26812;42.662;23.352;2022-12-29T10:08:58;23.10;;;15.98;;
41061;SDS011;26812;42.662;23.352;2022-12-29T10:15:03;25.45;;;15.90;;
41061;SDS011;26812;42.662;23.352;2022-12-29T10:19:54;25.67;;;16.05;;
41061;SDS011;26812;42.662;23.352;2022-12-29T10:25:37;24.08;;;16.65;;
41061;SDS011;26812;42.662;23.352;2022-12-29T10:28:06;23.15;;;16.27;;
41061;SDS011;26812;42.662;23.352;2022-12-29T10:30:43;23.13;;;15.35;;
41061;SDS011;26812;42.662;23.352;2022-12-29T10:33:14;23.33;;;16.73;;
41061;SDS011;26812;42.662;23.352;2022-12-29T10:35:43;22.15;;;16.98;;
41061;SDS011;26812;42.662;23.352;2022-12-29T10:43:32;23.70;;;16.23;;
41061;SDS011;26812;42.662;23.352;2022-12-29T10:46:04;23.75;;;17.00;;
41061;SDS011;26812;42.662;23.352;2022-12-29T10:48:35;27.38;;;16.50;;
41061;SDS011;26812;42.662;23.352;2022-12-29T10:51:02;25.25;;;15.80;;
41061;SDS011;26812;42.662;23.352;2022-12-29T10:53:43;24.95;;;16.90;;
41061;SDS011;26812;42.662;23.352;2022-12-29T10:56:20;23.70;;;16.27;;
41061;SDS011;26812;42.662;23.352;2022-12-29T10:59:22;22.75;;;16.75;;
41061;SDS011;26812;42.662;23.352;2022-12-29T11:07:11;25.05;;;16.88;;
41061;SDS011;26812;42.662;23.352;2022-12-29T11:09:38;23.40;;;15.50;;
41061;SDS011;26812;42.662;23.352;2022-12-29T11:12:27;21.40;;;15.32;;
41061;SDS011;26812;42.662;23.352;2022-12-29T11:17:27;22.33;;;15.63;;
41061;SDS011;26812;42.662;23.352;2022-12-29T11:19:52;24.30;;;16.63;;
41061;SDS011;26812;42.662;23.352;2022-12-29T11:24:48;26.73;;;17.17;;
41061;SDS011;26812;42.662;23.352;2022-12-29T11:27:22;27.90;;;16.77;;
41061;SDS011;26812;42.662;23.352;2022-12-29T11:29:50;24.70;;;17.20;;
41061;SDS011;26812;42.662;23.352;2022-12-29T11:32:18;24.73;;;18.40;;
41061;SDS011;26812;42.662;23.352;2022-12-29T11:34:46;24.00;;;17.13;;
41061;SDS011;26812;42.662;23.352;2022-12-29T11:37:14;24.17;;;17.45;;
41061;SDS011;26812;42.662;23.352;2022-12-29T11:39:43;22.45;;;16.55;;
41061;SDS011;26812;42.662;23.352;2022-12-29T11:42:16;27.60;;;17.08;;
41061;SDS011;26812;42.662;23.352;2022-12-29T11:44:47;22.92;;;16.83;;
41061;SDS011;26812;42.662;23.352;2022-12-29T11:47:26;24.33;;;16.83;;
41061;SDS011;26812;42.662;23.352;2022-12-29T11:49:58;24.50;;;17.08;;
41061;SDS011;26812;42.662;23.352;2022-12-29T11:52:27;25.38;;;15.65;;
41061;SDS011;26812;42.662;23.352;2022-12-29T11:54:58;23.00;;;16.48;;
41061;SDS011;26812;42.662;23.352;2022-12-29T11:57:26;24.55;;;17.30;;
41061;SDS011;26812;42.662;23.352;2022-12-29T11:59:53;23.17;;;16.67;;
41061;SDS011;26812;42.662;23.352;2022-12-29T12:02:30;22.75;;;15.68;;
41061;SDS011;26812;42.662;23.352;2022-12-29T12:05:45;26.42;;;16.42;;
41061;SDS011;26812;42.662;23.352;2022-12-29T12:10:35;26.33;;;16.42;;
41061;SDS011;26812;42.662;23.352;2022-12-29T12:16:24;20.30;;;15.45;;
41061;SDS011;26812;42.662;23.352;2022-12-29T12:18:59;23.25;;;15.60;;
41061;SDS011;26812;42.662;23.352;2022-12-29T12:21:49;22.25;;;16.05;;
41061;SDS011;26812;42.662;23.352;2022-12-29T12:27:28;24.10;;;15.85;;
41061;SDS011;26812;42.662;23.352;2022-12-29T12:30:10;22.83;;;16.70;;
41061;SDS011;26812;42.662;23.352;2022-12-29T12:41:24;23.90;;;16.50;;
41061;SDS011;26812;42.662;23.352;2022-12-29T12:50:06;23.75;;;16.25;;
41061;SDS011;26812;42.662;23.352;2022-12-29T12:58:30;27.45;;;16.38;;
41061;SDS011;26812;42.662;23.352;2022-12-29T13:11:28;24.55;;;15.23;;
41061;SDS011;26812;42.662;23.352;2022-12-29T13:14:18;22.67;;;15.00;;
41061;SDS011;26812;42.662;23.352;2022-12-29T13:16:57;26.80;;;16.88;;
41061;SDS011;26812;42.662;23.352;2022-12-29T13:22:12;28.17;;;17.13;;
41061;SDS011;26812;42.662;23.352;2022-12-29T13:30:08;24.65;;;16.25;;
41061;SDS011;26812;42.662;23.352;2022-12-29T13:32:37;28.42;;;18.35;;
41061;SDS011;26812;42.662;23.352;2022-12-29T13:35:37;26.73;;;18.00;;
41061;SDS011;26812;42.662;23.352;2022-12-29T13:38:11;25.13;;;16.42;;
41061;SDS011;26812;42.662;23.352;2022-12-29T13:40:44;28.45;;;18.33;;
41061;SDS011;26812;42.662;23.352;2022-12-29T13:43:13;28.75;;;17.75;;
41061;SDS011;26812;42.662;23.352;2022-12-29T13:45:41;29.70;;;17.83;;
41061;SDS011;26812;42.662;23.352;2022-12-29T13:48:22;25.02;;;16.90;;
41061;SDS011;26812;42.662;23.352;2022-12-29T13:51:01;25.48;;;16.50;;
41061;SDS011;26812;42.662;23.352;2022-12-29T13:59:21;25.95;;;16.90;;
41061;SDS011;26812;42.662;23.352;2022-12-29T14:02:09;25.25;;;16.75;;
41061;SDS011;26812;42.662;23.352;2022-12-29T14:04:41;29.73;;;19.08;;
41061;SDS011;26812;42.662;23.352;2022-12-29T14:07:20;28.88;;;19.20;;
41061;SDS011;26812;42.662;23.352;2022-12-29T14:17:35;27.98;;;17.17;;
41061;SDS011;26812;42.662;23.352;2022-12-29T14:20:01;26.30;;;17.75;;
41061;SDS011;26812;42.662;23.352;2022-12-29T14:22:29;29.65;;;17.65;;
41061;SDS011;26812;42.662;23.352;2022-12-29T14:24:55;34.60;;;17.35;;
41061;SDS011;26812;42.662;23.352;2022-12-29T14:29:47;31.40;;;18.42;;
41061;SDS011;26812;42.662;23.352;2022-12-29T14:34:50;29.90;;;17.55;;
41061;SDS011;26812;42.662;23.352;2022-12-29T14:42:55;28.00;;;18.08;;
41061;SDS011;26812;42.662;23.352;2022-12-29T14:45:28;31.10;;;18.00;;
41061;SDS011;26812;42.662;23.352;2022-12-29T14:47:55;37.20;;;20.17;;
41061;SDS011;26812;42.662;23.352;2022-12-29T14:50:22;29.95;;;17.90;;
41061;SDS011;26812;42.662;23.352;2022-12-29T14:53:02;31.90;;;18.30;;
41061;SDS011;26812;42.662;23.352;2022-12-29T14:55:40;29.63;;;18.88;;
41061;SDS011;26812;42.662;23.352;2022-12-29T15:00:39;29.90;;;18.13;;
41061;SDS011;26812;42.662;23.352;2022-12-29T15:05:32;26.83;;;18.60;;
41061;SDS011;26812;42.662;23.352;2022-12-29T15:07:59;29.60;;;19.17;;
41061;SDS011;26812;42.662;23.352;2022-12-29T15:10:25;31.20;;;18.42;;
41061;SDS011;26812;42.662;23.352;2022-12-29T15:13:00;28.30;;;18.75;;
41061;SDS011;26812;42.662;23.352;2022-12-29T15:15:29;31.88;;;19.75;;
41061;SDS011;26812;42.662;23.352;2022-12-29T15:18:18;30.40;;;18.73;;
41061;SDS011;26812;42.662;23.352;2022-12-29T15:21:02;31.33;;;20.13;;
41061;SDS011;26812;42.662;23.352;2022-12-29T15:23:30;33.22;;;20.48;;
41061;SDS011;26812;42.662;23.352;2022-12-29T15:26:07;32.67;;;18.92;;
41061;SDS011;26812;42.662;23.352;2022-12-29T15:28:37;35.33;;;19.67;;
41061;SDS011;26812;42.662;23.352;2022-12-29T15:31:11;29.88;;;19.83;;
41061;SDS011;26812;42.662;23.352;2022-12-29T15:33:43;34.67;;;19.52;;
41061;SDS011;26812;42.662;23.352;2022-12-29T15:36:22;35.97;;;21.85;;
41061;SDS011;26812;42.662;23.352;2022-12-29T15:38:50;30.55;;;17.70;;
41061;SDS011;26812;42.662;23.352;2022-12-29T15:46:50;37.05;;;21.98;;
41061;SDS011;26812;42.662;23.352;2022-12-29T15:49:15;34.55;;;20.20;;
41061;SDS011;26812;42.662;23.352;2022-12-29T15:51:41;42.60;;;23.27;;
41061;SDS011;26812;42.662;23.352;2022-12-29T15:54:18;41.72;;;24.30;;
41061;SDS011;26812;42.662;23.352;2022-12-29T15:56:46;35.63;;;21.73;;
41061;SDS011;26812;42.662;23.352;2022-12-29T15:59:26;34.78;;;23.85;;
41061;SDS011;26812;42.662;23.352;2022-12-29T16:01:56;36.08;;;22.27;;
41061;SDS011;26812;42.662;23.352;2022-12-29T16:04:24;38.17;;;22.75;;
41061;SDS011;26812;42.662;23.352;2022-12-29T16:06:56;40.90;;;23.17;;
41061;SDS011;26812;42.662;23.352;2022-12-29T16:12:29;42.75;;;23.85;;
41061;SDS011;26812;42.662;23.352;2022-12-29T16:17:27;44.03;;;25.67;;
41061;SDS011;26812;42.662;23.352;2022-12-29T16:19:57;40.25;;;25.88;;
41061;SDS011;26812;42.662;23.352;2022-12-29T16:22:33;43.05;;;24.17;;
41061;SDS011;26812;42.662;23.352;2022-12-29T16:25:08;40.33;;;24.33;;
41061;SDS011;26812;42.662;23.352;2022-12-29T16:27:44;45.97;;;26.35;;
41061;SDS011;26812;42.662;23.352;2022-12-29T16:30:29;41.15;;;26.25;;
41061;SDS011;26812;42.662;23.352;2022-12-29T16:35:24;43.13;;;26.40;;
41061;SDS011;26812;42.662;23.352;2022-12-29T16:38:07;35.97;;;23.65;;
41061;SDS011;26812;42.662;23.352;2022-12-29T16:43:50;37.20;;;23.25;;
41061;SDS011;26812;42.662;23.352;2022-12-29T16:46:38;44.33;;;23.95;;
41061;SDS011;26812;42.662;23.352;2022-12-29T16:49:28;45.03;;;26.98;;
41061;SDS011;26812;42.662;23.352;2022-12-29T16:51:56;46.30;;;24.70;;
41061;SDS011;26812;42.662;23.352;2022-12-29T16:54:23;45.28;;;25.85;;
41061;SDS011;26812;42.662;23.352;2022-12-29T16:56:51;42.83;;;26.45;;
41061;SDS011;26812;42.662;23.352;2022-12-29T16:59:23;44.03;;;26.00;;
41061;SDS011;26812;42.662;23.352;2022-12-29T17:01:56;41.63;;;24.35;;
41061;SDS011;26812;42.662;23.352;2022-12-29T17:04:24;43.80;;;25.73;;
41061;SDS011;26812;42.662;23.352;2022-12-29T17:06:50;45.78;;;26.45;;
41061;SDS011;26812;42.662;23.352;2022-12-29T17:09:16;39.65;;;24.83;;
41061;SDS011;26812;42.662;23.352;2022-12-29T17:11:52;38.63;;;24.85;;
41061;SDS011;26812;42.662;23.352;2022-12-29T17:14:27;42.25;;;24.88;;